createdAt,value
2017-12-09T00:00:47.139Z,76.92
2017-12-09T00:01:46.880Z,77.01
2017-12-09T00:02:46.892Z,77.06
2017-12-09T00:03:47.168Z,76.97
2017-12-09T00:04:47.179Z,77.06
2017-12-09T00:05:47.194Z,76.78
2017-12-09T00:06:47.210Z,76.87
2017-12-09T00:07:47.206Z,77.06
2017-12-09T00:08:47.221Z,76.44
2017-12-09T00:09:47.237Z,77.01
2017-12-09T00:10:47.241Z,77.48
2017-12-09T00:11:47.251Z,77.35
2017-12-09T00:12:47.264Z,77.06
2017-12-09T00:13:47.271Z,77.16
2017-12-09T00:14:47.284Z,77.16
2017-12-09T00:15:47.025Z,77.2
2017-12-09T00:16:47.312Z,77.29
2017-12-09T00:17:47.311Z,77.58
2017-12-09T00:18:47.329Z,76.92
2017-12-09T00:19:47.330Z,77.2
2017-12-09T00:20:47.343Z,77.11
2017-12-09T00:21:47.351Z,77.39
2017-12-09T00:22:47.374Z,77.2
2017-12-09T00:23:47.374Z,77.39
2017-12-09T00:24:47.395Z,77.11
2017-12-09T00:25:47.129Z,77.01
2017-12-09T00:26:47.142Z,77.2
2017-12-09T00:27:47.419Z,77.11
2017-12-09T00:28:47.166Z,76.54
2017-12-09T00:29:47.438Z,76.87
2017-12-09T00:30:47.458Z,77.2
2017-12-09T00:31:47.458Z,76.78
2017-12-09T00:32:47.475Z,76.34
2017-12-09T00:33:47.477Z,76.73
2017-12-09T00:34:47.489Z,76.54
2017-12-09T00:35:47.231Z,76.68
2017-12-09T00:36:47.516Z,76.73
2017-12-09T00:37:47.525Z,76.4
2017-12-09T00:38:47.262Z,76.54
2017-12-09T00:39:47.542Z,76.59
2017-12-09T00:40:47.556Z,76.5
2017-12-09T00:41:47.566Z,76.44
2017-12-09T00:42:47.571Z,76.68
2017-12-09T00:43:47.581Z,76.21
2017-12-09T00:44:47.605Z,76.59
2017-12-09T00:45:47.602Z,76.21
2017-12-09T00:46:47.622Z,76.21
2017-12-09T00:47:47.358Z,76.31
2017-12-09T00:48:47.646Z,75.64
2017-12-09T00:49:47.644Z,76.03
2017-12-09T00:50:47.671Z,75.74
2017-12-09T00:51:47.668Z,75.84
2017-12-09T00:52:47.410Z,75.74
2017-12-09T00:53:47.418Z,75.93
2017-12-09T00:54:47.705Z,75.64
2017-12-09T00:55:47.707Z,76.03
2017-12-09T00:56:47.736Z,75.84
2017-12-09T00:57:47.464Z,76.03
2017-12-09T00:58:47.764Z,75.55
2017-12-09T00:59:47.750Z,75.55
2017-12-09T01:00:47.769Z,75.36
2017-12-09T01:01:47.771Z,75.26
2017-12-09T01:02:47.781Z,75.64
2017-12-09T01:03:47.795Z,76.12
2017-12-09T01:04:47.803Z,75.64
2017-12-09T01:05:47.822Z,76.03
2017-12-09T01:06:47.817Z,75.26
2017-12-09T01:07:47.831Z,75.36
2017-12-09T01:08:47.575Z,75.55
2017-12-09T01:09:47.856Z,75.55
2017-12-09T01:10:47.871Z,75.55
2017-12-09T01:11:47.872Z,75.36
2017-12-09T01:12:47.882Z,75.64
2017-12-09T01:13:47.890Z,75.36
2017-12-09T01:14:47.899Z,75.64
2017-12-09T01:15:47.911Z,75.36
2017-12-09T01:16:48.132Z,75.74
2017-12-09T01:17:47.934Z,75.45
2017-12-09T01:18:47.954Z,75.07
2017-12-09T01:19:47.956Z,75.26
2017-12-09T01:20:47.966Z,75.36
2017-12-09T01:21:47.975Z,75.07
2017-12-09T01:22:47.983Z,75.07
2017-12-09T01:23:48.000Z,75.36
2017-12-09T01:24:48.012Z,75.36
2017-12-09T01:25:48.022Z,74.88
2017-12-09T01:26:48.030Z,75.17
2017-12-09T01:27:48.052Z,75.17
2017-12-09T01:28:48.058Z,74.6
2017-12-09T01:29:47.790Z,74.51
2017-12-09T01:30:48.089Z,74.13
2017-12-09T01:31:48.089Z,74.41
2017-12-09T01:32:48.100Z,74.6
2017-12-09T01:33:48.095Z,74.03
2017-12-09T01:34:48.105Z,74.32
2017-12-09T01:35:48.115Z,74.03
2017-12-09T01:36:47.867Z,74.03
2017-12-09T01:37:48.140Z,74.22
2017-12-09T01:38:48.155Z,73.84
2017-12-09T01:39:48.154Z,73.94
2017-12-09T01:40:48.195Z,73.46
2017-12-09T01:41:48.180Z,74.41
2017-12-09T01:42:48.209Z,74.03
2017-12-09T01:43:48.212Z,74.03
2017-12-09T01:44:48.213Z,73.84
2017-12-09T01:45:48.220Z,74.32
2017-12-09T01:46:48.239Z,74.13
2017-12-09T01:47:48.236Z,74.32
2017-12-09T01:48:48.252Z,74.22
2017-12-09T01:49:48.260Z,74.22
2017-12-09T01:50:48.272Z,74.32
2017-12-09T01:51:48.276Z,74.32
2017-12-09T01:52:48.296Z,74.22
2017-12-09T01:53:48.299Z,73.84
2017-12-09T01:54:48.320Z,73.84
2017-12-09T01:55:48.319Z,73.56
2017-12-09T01:56:48.079Z,73.37
2017-12-09T01:57:48.338Z,73.56
2017-12-09T01:58:48.359Z,73.56
2017-12-09T01:59:48.359Z,73.75
2017-12-09T02:00:48.396Z,73.94
2017-12-09T02:01:48.382Z,73.84
2017-12-09T02:02:48.387Z,73.84
2017-12-09T02:03:48.397Z,74.03
2017-12-09T02:04:48.148Z,74.51
2017-12-09T02:05:48.419Z,74.79
2017-12-09T02:06:48.430Z,74.51
2017-12-09T02:07:48.440Z,74.51
2017-12-09T02:08:48.454Z,74.22
2017-12-09T02:09:48.458Z,74.03
2017-12-09T02:10:48.474Z,74.13
2017-12-09T02:11:48.481Z,74.22
2017-12-09T02:12:48.495Z,73.84
2017-12-09T02:13:48.235Z,73.75
2017-12-09T02:14:48.534Z,74.13
2017-12-09T02:15:48.519Z,73.75
2017-12-09T02:16:48.538Z,73.37
2017-12-09T02:17:48.275Z,73.27
2017-12-09T02:18:48.550Z,73.08
2017-12-09T02:19:48.560Z,73.08
2017-12-09T02:20:48.574Z,72.99
2017-12-09T02:21:48.581Z,73.18
2017-12-09T02:22:48.601Z,72.71
2017-12-09T02:23:48.600Z,72.61
2017-12-09T02:24:48.623Z,72.71
2017-12-09T02:25:48.621Z,73.18
2017-12-09T02:26:48.733Z,73.27
2017-12-09T02:27:48.643Z,73.65
2017-12-09T02:28:48.384Z,73.56
2017-12-09T02:29:48.660Z,73.37
2017-12-09T02:30:48.679Z,73.37
2017-12-09T02:31:48.416Z,73.75
2017-12-09T02:32:48.694Z,73.27
2017-12-09T02:33:48.435Z,73.46
2017-12-09T02:34:48.711Z,73.37
2017-12-09T02:35:48.722Z,73.37
2017-12-09T02:36:48.729Z,73.37
2017-12-09T02:37:48.740Z,73.56
2017-12-09T02:38:48.751Z,73.37
2017-12-09T02:39:48.762Z,73.37
2017-12-09T02:40:48.771Z,73.65
2017-12-09T02:41:48.515Z,72.99
2017-12-09T02:42:48.789Z,72.8
2017-12-09T02:43:48.810Z,72.61
2017-12-09T02:44:48.546Z,72.8
2017-12-09T02:45:48.825Z,72.23
2017-12-09T02:46:48.840Z,72.42
2017-12-09T02:47:48.840Z,72.8
2017-12-09T02:48:48.852Z,72.71
2017-12-09T02:49:48.862Z,72.71
2017-12-09T02:50:48.870Z,72.61
2017-12-09T02:51:48.882Z,72.61
2017-12-09T02:52:48.891Z,72.61
2017-12-09T02:53:48.902Z,72.8
2017-12-09T02:54:48.913Z,72.8
2017-12-09T02:55:48.656Z,72.52
2017-12-09T02:56:48.934Z,72.71
2017-12-09T02:57:48.679Z,72.89
2017-12-09T02:58:48.950Z,72.52
2017-12-09T02:59:48.981Z,73.37
2017-12-09T03:00:48.980Z,73.27
2017-12-09T03:01:48.980Z,72.99
2017-12-09T03:02:48.999Z,73.37
2017-12-09T03:03:49.000Z,73.46
2017-12-09T03:04:49.025Z,73.46
2017-12-09T03:05:49.033Z,73.08
2017-12-09T03:06:49.037Z,74.13
2017-12-09T03:07:49.043Z,74.22
2017-12-09T03:08:49.061Z,74.13
2017-12-09T03:09:48.802Z,74.22
2017-12-09T03:10:49.086Z,74.22
2017-12-09T03:11:48.819Z,74.03
2017-12-09T03:12:49.104Z,73.75
2017-12-09T03:13:48.838Z,74.03
2017-12-09T03:14:49.130Z,73.84
2017-12-09T03:15:48.854Z,74.41
2017-12-09T03:16:49.145Z,74.51
2017-12-09T03:17:49.147Z,74.22
2017-12-09T03:18:49.165Z,74.51
2017-12-09T03:19:49.160Z,74.51
2017-12-09T03:20:49.178Z,74.79
2017-12-09T03:21:49.185Z,74.79
2017-12-09T03:22:48.927Z,74.79
2017-12-09T03:23:49.203Z,74.41
2017-12-09T03:24:49.221Z,74.22
2017-12-09T03:25:49.225Z,74.6
2017-12-09T03:26:49.246Z,74.51
2017-12-09T03:27:49.244Z,74.32
2017-12-09T03:28:49.261Z,74.41
2017-12-09T03:29:48.997Z,74.22
2017-12-09T03:30:49.286Z,74.69
2017-12-09T03:31:49.017Z,73.94
2017-12-09T03:32:49.298Z,74.32
2017-12-09T03:33:49.301Z,74.22
2017-12-09T03:34:49.325Z,74.6
2017-12-09T03:35:49.324Z,74.69
2017-12-09T03:36:49.338Z,74.51
2017-12-09T03:37:49.345Z,74.13
2017-12-09T03:38:49.088Z,74.32
2017-12-09T03:39:49.367Z,74.41
2017-12-09T03:40:49.385Z,74.98
2017-12-09T03:41:49.384Z,75.17
2017-12-09T03:42:49.392Z,75.07
2017-12-09T03:43:49.405Z,74.98
2017-12-09T03:44:49.414Z,75.07
2017-12-09T03:45:49.422Z,75.26
2017-12-09T03:46:49.445Z,75.17
2017-12-09T03:47:49.445Z,74.88
2017-12-09T03:48:49.187Z,74.69
2017-12-09T03:49:49.467Z,75.07
2017-12-09T03:50:49.484Z,74.98
2017-12-09T03:51:49.489Z,74.98
2017-12-09T03:52:49.505Z,74.88
2017-12-09T03:53:49.507Z,75.07
2017-12-09T03:54:49.527Z,74.79
2017-12-09T03:55:49.523Z,74.79
2017-12-09T03:56:49.276Z,75.17
2017-12-09T03:57:49.546Z,75.55
2017-12-09T03:58:49.560Z,75.36
2017-12-09T03:59:49.566Z,75.64
2017-12-09T04:00:49.308Z,75.84
2017-12-09T04:01:49.583Z,75.36
2017-12-09T04:02:49.601Z,75.64
2017-12-09T04:03:49.340Z,75.26
2017-12-09T04:04:49.618Z,75.74
2017-12-09T04:05:49.622Z,76.12
2017-12-09T04:06:49.637Z,76.03
2017-12-09T04:07:49.645Z,75.84
2017-12-09T04:08:49.655Z,76.03
2017-12-09T04:09:49.666Z,76.12
2017-12-09T04:10:49.682Z,76.12
2017-12-09T04:11:49.686Z,75.64
2017-12-09T04:12:49.694Z,76.12
2017-12-09T04:13:49.705Z,75.64
2017-12-09T04:14:49.714Z,76.12
2017-12-09T04:15:49.724Z,75.74
2017-12-09T04:16:49.734Z,75.93
2017-12-09T04:17:49.749Z,75.64
2017-12-09T04:18:49.756Z,75.74
2017-12-09T04:19:49.766Z,76.12
2017-12-09T04:20:49.772Z,76.12
2017-12-09T04:21:49.783Z,75.74
2017-12-09T04:22:49.797Z,76.21
2017-12-09T04:23:49.807Z,76.5
2017-12-09T04:24:49.814Z,76.5
2017-12-09T04:25:49.825Z,76.21
2017-12-09T04:26:49.835Z,76.12
2017-12-09T04:27:49.843Z,76.12
2017-12-09T04:28:49.852Z,76.59
2017-12-09T04:29:49.864Z,76.59
2017-12-09T04:30:49.881Z,76.59
2017-12-09T04:31:49.882Z,75.74
2017-12-09T04:32:49.902Z,76.4
2017-12-09T04:33:49.904Z,76.21
2017-12-09T04:34:49.648Z,76.31
2017-12-09T04:35:49.922Z,76.31
2017-12-09T04:36:49.935Z,76.5
2017-12-09T04:37:49.946Z,76.59
2017-12-09T04:38:49.960Z,76.31
2017-12-09T04:39:49.968Z,76.78
2017-12-09T04:40:49.977Z,76.87
2017-12-09T04:41:49.990Z,76.78
2017-12-09T04:42:49.996Z,76.87
2017-12-09T04:43:50.003Z,76.68
2017-12-09T04:44:50.015Z,76.59
2017-12-09T04:45:50.025Z,76.5
2017-12-09T04:46:50.033Z,76.68
2017-12-09T04:47:50.044Z,76.59
2017-12-09T04:48:50.051Z,76.5
2017-12-09T04:49:50.062Z,76.31
2017-12-09T04:50:49.809Z,76.4
2017-12-09T04:51:50.088Z,76.68
2017-12-09T04:52:50.094Z,76.4
2017-12-09T04:53:50.103Z,75.74
2017-12-09T04:54:50.114Z,76.12
2017-12-09T04:55:50.187Z,76.4
2017-12-09T04:56:50.131Z,76.21
2017-12-09T04:57:50.142Z,76.59
2017-12-09T04:58:50.152Z,76.12
2017-12-09T04:59:50.162Z,76.21
2017-12-09T05:00:50.172Z,76.4
2017-12-09T05:01:50.182Z,76.31
2017-12-09T05:03:22.000Z,76.68
2017-12-09T05:03:49.935Z,76.68
2017-12-09T05:04:50.212Z,76.78
2017-12-09T05:05:50.221Z,76.59
2017-12-09T05:06:50.235Z,76.5
2017-12-09T05:07:50.244Z,76.31
2017-12-09T05:08:49.993Z,76.21
2017-12-09T05:09:50.264Z,76.21
2017-12-09T05:10:50.393Z,76.59
2017-12-09T05:11:50.288Z,76.5
2017-12-09T05:12:50.299Z,76.5
2017-12-09T05:13:50.038Z,76.59
2017-12-09T05:14:50.311Z,76.4
2017-12-09T05:15:50.322Z,76.4
2017-12-09T05:16:50.333Z,76.97
2017-12-09T05:17:50.077Z,76.4
2017-12-09T05:18:50.359Z,76.31
2017-12-09T05:19:50.370Z,76.87
2017-12-09T05:20:50.374Z,76.78
2017-12-09T05:21:50.391Z,77.06
2017-12-09T05:22:50.396Z,76.4
2017-12-09T05:23:50.401Z,76.31
2017-12-09T05:24:50.412Z,76.5
2017-12-09T05:25:50.426Z,76.5
2017-12-09T05:26:50.433Z,76.5
2017-12-09T05:27:50.444Z,76.4
2017-12-09T05:28:50.453Z,76.59
2017-12-09T05:29:50.463Z,76.68
2017-12-09T05:30:50.480Z,76.68
2017-12-09T05:31:50.483Z,76.68
2017-12-09T05:32:50.498Z,76.4
2017-12-09T05:33:50.504Z,76.5
2017-12-09T05:34:50.574Z,76.59
2017-12-09T05:35:50.257Z,77.06
2017-12-09T05:36:50.541Z,76.78
2017-12-09T05:37:50.542Z,76.5
2017-12-09T05:38:50.554Z,76.5
2017-12-09T05:39:50.561Z,76.59
2017-12-09T05:40:50.631Z,75.93
2017-12-09T05:41:50.585Z,76.31
2017-12-09T05:42:50.598Z,76.21
2017-12-09T05:43:50.610Z,76.68
2017-12-09T05:44:50.612Z,76.31
2017-12-09T05:45:50.621Z,76.68
2017-12-09T05:46:50.635Z,76.78
2017-12-09T05:47:50.645Z,76.68
2017-12-09T05:48:50.658Z,76.5
2017-12-09T05:49:50.675Z,76.5
2017-12-09T05:50:50.671Z,76.59
2017-12-09T05:51:50.679Z,76.87
2017-12-09T05:52:50.431Z,76.78
2017-12-09T05:53:50.705Z,76.5
2017-12-09T05:54:50.722Z,76.4
2017-12-09T05:55:50.725Z,76.4
2017-12-09T05:56:50.741Z,76.59
2017-12-09T05:57:50.476Z,76.97
2017-12-09T05:58:50.753Z,76.78
2017-12-09T05:59:50.765Z,76.87
2017-12-09T06:00:50.771Z,76.68
2017-12-09T06:01:50.784Z,76.87
2017-12-09T06:02:50.529Z,76.78
2017-12-09T06:03:50.803Z,76.87
2017-12-09T06:04:50.826Z,76.97
2017-12-09T06:05:50.818Z,77.06
2017-12-09T06:06:50.836Z,76.21
2017-12-09T06:07:50.841Z,76.4
2017-12-09T06:08:50.852Z,77.06
2017-12-09T06:09:50.869Z,76.4
2017-12-09T06:10:50.874Z,76.5
2017-12-09T06:11:50.881Z,76.5
2017-12-09T06:12:50.895Z,76.5
2017-12-09T06:13:50.909Z,76.21
2017-12-09T06:14:50.911Z,76.59
2017-12-09T06:15:50.921Z,76.5
2017-12-09T06:16:50.930Z,76.4
2017-12-09T06:17:50.673Z,76.5
2017-12-09T06:18:50.952Z,76.59
2017-12-09T06:19:50.961Z,76.31
2017-12-09T06:20:50.969Z,76.97
2017-12-09T06:21:50.977Z,76.87
2017-12-09T06:22:50.727Z,76.59
2017-12-09T06:23:51.000Z,76.5
2017-12-09T06:24:51.014Z,76.59
2017-12-09T06:25:51.018Z,76.59
2017-12-09T06:26:51.030Z,76.78
2017-12-09T06:27:51.039Z,76.68
2017-12-09T06:28:51.048Z,76.68
2017-12-09T06:29:51.058Z,76.87
2017-12-09T06:30:51.068Z,76.87
2017-12-09T06:31:51.077Z,77.16
2017-12-09T06:32:51.090Z,76.78
2017-12-09T06:33:51.101Z,76.87
2017-12-09T06:34:51.179Z,76.78
2017-12-09T06:35:51.117Z,76.97
2017-12-09T06:36:51.179Z,77.16
2017-12-09T06:37:51.138Z,76.78
2017-12-09T06:38:51.153Z,77.45
2017-12-09T06:39:51.208Z,76.87
2017-12-09T06:40:51.172Z,77.16
2017-12-09T06:41:51.179Z,77.83
2017-12-09T06:42:51.187Z,77.64
2017-12-09T06:43:51.196Z,77.25
2017-12-09T06:44:51.210Z,77.54
2017-12-09T06:45:51.216Z,77.83
2017-12-09T06:46:51.240Z,77.45
2017-12-09T06:47:51.235Z,77.54
2017-12-09T06:48:50.982Z,77.64
2017-12-09T06:49:51.264Z,77.73
2017-12-09T06:50:51.282Z,77.83
2017-12-09T06:51:51.282Z,77.73
2017-12-09T06:52:51.284Z,77.83
2017-12-09T06:53:51.301Z,77.64
2017-12-09T06:54:51.039Z,77.64
2017-12-09T06:55:51.314Z,77.83
2017-12-09T06:56:51.325Z,77.92
2017-12-09T06:57:51.343Z,78.2
2017-12-09T06:58:51.344Z,77.83
2017-12-09T06:59:51.356Z,77.73
2017-12-09T07:00:51.376Z,78.2
2017-12-09T07:01:51.377Z,78.11
2017-12-09T07:02:51.126Z,77.92
2017-12-09T07:03:51.397Z,77.64
2017-12-09T07:04:51.411Z,77.16
2017-12-09T07:05:51.416Z,77.64
2017-12-09T07:06:51.425Z,77.73
2017-12-09T07:07:51.434Z,77.83
2017-12-09T07:08:51.181Z,77.64
2017-12-09T07:09:51.188Z,77.83
2017-12-09T07:10:51.473Z,77.64
2017-12-09T07:11:51.219Z,77.73
2017-12-09T07:12:51.486Z,77.83
2017-12-09T07:13:51.494Z,77.54
2017-12-09T07:14:51.511Z,77.54
2017-12-09T07:15:51.522Z,78.11
2017-12-09T07:16:51.525Z,78.11
2017-12-09T07:17:51.538Z,78.39
2017-12-09T07:18:51.281Z,78.2
2017-12-09T07:19:51.556Z,78.58
2017-12-09T07:20:51.562Z,78.11
2017-12-09T07:21:51.308Z,78.39
2017-12-09T07:22:51.590Z,78.58
2017-12-09T07:23:51.597Z,78.77
2017-12-09T07:24:51.607Z,78.96
2017-12-09T07:25:51.616Z,78.87
2017-12-09T07:26:51.622Z,79.34
2017-12-09T07:27:51.652Z,79.53
2017-12-09T07:28:51.649Z,79.44
2017-12-09T07:29:51.666Z,79.34
2017-12-09T07:30:51.672Z,79.47
2017-12-09T07:31:51.676Z,79.34
2017-12-09T07:32:51.685Z,79.28
2017-12-09T07:33:51.430Z,79.25
2017-12-09T07:34:51.706Z,79.19
2017-12-09T07:35:51.719Z,79.28
2017-12-09T07:36:51.724Z,79.47
2017-12-09T07:37:51.737Z,79.95
2017-12-09T07:38:51.752Z,79.47
2017-12-09T07:39:51.784Z,79.76
2017-12-09T07:40:51.768Z,79.66
2017-12-09T07:41:51.782Z,79.76
2017-12-09T07:42:51.520Z,79.95
2017-12-09T07:43:51.796Z,79.85
2017-12-09T07:44:51.811Z,80.14
2017-12-09T07:45:51.820Z,79.95
2017-12-09T07:46:51.830Z,79.95
2017-12-09T07:47:51.841Z,79.66
2017-12-09T07:48:51.594Z,79.76
2017-12-09T07:49:51.857Z,79.76
2017-12-09T07:50:51.874Z,79.47
2017-12-09T07:51:51.882Z,79.38
2017-12-09T07:52:51.889Z,79.47
2017-12-09T07:53:51.898Z,79.47
2017-12-09T07:54:51.913Z,79.47
2017-12-09T07:55:51.918Z,79.38
2017-12-09T07:56:51.930Z,79.47
2017-12-09T07:57:51.944Z,80.14
2017-12-09T07:58:51.951Z,79.76
2017-12-09T07:59:51.960Z,79.57
2017-12-09T08:00:51.704Z,79.19
2017-12-09T08:01:51.980Z,79.47
2017-12-09T08:02:51.989Z,79.47
2017-12-09T08:03:52.000Z,79.1
2017-12-09T08:04:51.755Z,79.28
2017-12-09T08:05:51.759Z,79.28
2017-12-09T08:06:51.768Z,79.47
2017-12-09T08:07:52.050Z,78.91
2017-12-09T08:08:51.785Z,79.47
2017-12-09T08:09:52.066Z,79.47
2017-12-09T08:10:52.074Z,79.38
2017-12-09T08:11:52.086Z,79.38
2017-12-09T08:12:52.094Z,79.47
2017-12-09T08:13:52.124Z,79.47
2017-12-09T08:14:52.117Z,79.95
2017-12-09T08:15:52.195Z,79.95
2017-12-09T08:16:52.145Z,79.85
2017-12-09T08:17:52.148Z,79.57
2017-12-09T08:18:52.159Z,79.38
2017-12-09T08:19:52.168Z,79.19
2017-12-09T08:20:52.182Z,79.38
2017-12-09T08:21:52.195Z,79.28
2017-12-09T08:22:52.200Z,79
2017-12-09T08:23:52.209Z,78.72
2017-12-09T08:24:52.230Z,78.91
2017-12-09T08:25:52.235Z,78.81
2017-12-09T08:26:52.241Z,78.43
2017-12-09T08:27:52.254Z,77.86
2017-12-09T08:28:52.272Z,77.86
2017-12-09T08:29:52.009Z,77.67
2017-12-09T08:30:52.289Z,77.77
2017-12-09T08:31:52.293Z,77.11
2017-12-09T08:32:52.308Z,77.2
2017-12-09T08:33:52.317Z,76.63
2017-12-09T08:34:52.325Z,76.63
2017-12-09T08:35:52.338Z,76.92
2017-12-09T08:36:52.351Z,76.82
2017-12-09T08:37:52.362Z,76.73
2017-12-09T08:38:52.382Z,77.11
2017-12-09T08:39:52.381Z,76.92
2017-12-09T08:40:52.393Z,77.2
2017-12-09T08:41:52.413Z,76.92
2017-12-09T08:42:52.415Z,76.92
2017-12-09T08:43:52.424Z,76.92
2017-12-09T08:44:52.433Z,76.92
2017-12-09T08:45:52.177Z,76.25
2017-12-09T08:46:52.456Z,76.54
2017-12-09T08:47:52.467Z,76.63
2017-12-09T08:48:52.484Z,76.44
2017-12-09T08:49:52.498Z,76.15
2017-12-09T08:50:52.498Z,76.54
2017-12-09T08:51:52.241Z,76.82
2017-12-09T08:52:52.520Z,76.44
2017-12-09T08:53:52.537Z,75.87
2017-12-09T08:54:52.540Z,75.78
2017-12-09T08:55:52.287Z,75.87
2017-12-09T08:56:52.571Z,75.78
2017-12-09T08:57:52.572Z,76.25
2017-12-09T08:58:52.315Z,75.4
2017-12-09T08:59:52.594Z,75.87
2017-12-09T09:00:52.604Z,75.68
2017-12-09T09:01:52.626Z,75.59
2017-12-09T09:02:52.624Z,74.92
2017-12-09T09:03:52.640Z,75.21
2017-12-09T09:04:52.382Z,75.4
2017-12-09T09:05:52.659Z,75.4
2017-12-09T09:06:52.665Z,74.64
2017-12-09T09:07:52.681Z,74.64
2017-12-09T09:08:52.690Z,74.73
2017-12-09T09:09:52.710Z,74.16
2017-12-09T09:10:52.723Z,74.54
2017-12-09T09:11:52.735Z,74.73
2017-12-09T09:12:52.465Z,74.64
2017-12-09T09:13:52.739Z,74.73
2017-12-09T09:14:52.763Z,74.54
2017-12-09T09:15:52.765Z,74.64
2017-12-09T09:16:52.786Z,74.54
2017-12-09T09:17:52.786Z,74.35
2017-12-09T09:18:52.802Z,74.54
2017-12-09T09:19:52.806Z,74.26
2017-12-09T09:20:52.875Z,74.26
2017-12-09T09:21:52.826Z,74.41
2017-12-09T09:22:52.851Z,74.41
2017-12-09T09:23:52.853Z,73.75
2017-12-09T09:24:52.867Z,73.88
2017-12-09T09:25:52.869Z,73.84
2017-12-09T09:26:52.930Z,74.03
2017-12-09T09:27:52.622Z,73.84
2017-12-09T09:28:52.736Z,74.54
2017-12-09T09:29:52.959Z,74.13
2017-12-09T09:30:52.657Z,73.97
2017-12-09T09:31:52.934Z,74.22
2017-12-09T09:32:52.675Z,73.97
2017-12-09T09:33:52.686Z,73.56
2017-12-09T09:34:52.961Z,73.41
2017-12-09T09:35:52.973Z,73.27
2017-12-09T09:36:52.982Z,73.31
2017-12-09T09:37:52.996Z,73.65
2017-12-09T09:38:53.007Z,73.65
2017-12-09T09:39:53.016Z,73.94
2017-12-09T09:40:53.024Z,73.41
2017-12-09T09:41:53.040Z,73.65
2017-12-09T09:42:53.044Z,73.75
2017-12-09T09:43:53.066Z,74.03
2017-12-09T09:44:52.801Z,73.5
2017-12-09T09:45:53.081Z,73.27
2017-12-09T09:46:52.821Z,73.18
2017-12-09T09:47:52.833Z,74.16
2017-12-09T09:48:53.113Z,73.84
2017-12-09T09:49:53.125Z,74.16
2017-12-09T09:50:53.130Z,74.07
2017-12-09T09:51:53.144Z,74.16
2017-12-09T09:52:52.884Z,73.31
2017-12-09T09:53:53.167Z,73.22
2017-12-09T09:54:53.171Z,72.93
2017-12-09T09:55:53.185Z,72.89
2017-12-09T09:56:53.195Z,72.33
2017-12-09T09:57:53.204Z,72.71
2017-12-09T09:58:53.211Z,72.84
2017-12-09T09:59:53.223Z,72.99
2017-12-09T10:00:52.970Z,72.99
2017-12-09T10:01:52.976Z,72.71
2017-12-09T10:02:53.254Z,72.71
2017-12-09T10:03:53.266Z,72.14
2017-12-09T10:04:53.012Z,72.14
2017-12-09T10:05:53.020Z,71.8
2017-12-09T10:06:53.302Z,71.66
2017-12-09T10:07:53.307Z,71.89
2017-12-09T10:08:53.318Z,71.98
2017-12-09T10:09:53.336Z,72.04
2017-12-09T10:10:53.078Z,71.19
2017-12-09T10:11:53.350Z,71.38
2017-12-09T10:12:53.094Z,71.38
2017-12-09T10:13:53.370Z,71.28
2017-12-09T10:14:53.113Z,71.38
2017-12-09T10:15:53.391Z,71.38
2017-12-09T10:16:53.400Z,71.95
2017-12-09T10:17:53.147Z,71.47
2017-12-09T10:18:53.422Z,70.9
2017-12-09T10:19:53.433Z,71.19
2017-12-09T10:20:53.441Z,71.28
2017-12-09T10:21:53.452Z,71.19
2017-12-09T10:22:53.462Z,71.38
2017-12-09T10:23:53.475Z,70.72
2017-12-09T10:24:53.484Z,70.9
2017-12-09T10:25:53.492Z,70.9
2017-12-09T10:26:53.256Z,70.9
2017-12-09T10:27:53.520Z,71.09
2017-12-09T10:28:53.526Z,70.81
2017-12-09T10:29:53.541Z,70.81
2017-12-09T10:30:53.551Z,71
2017-12-09T10:31:53.568Z,71.28
2017-12-09T10:32:53.307Z,71.19
2017-12-09T10:33:53.578Z,71.66
2017-12-09T10:34:53.587Z,71.85
2017-12-09T10:35:53.601Z,71
2017-12-09T10:36:53.607Z,71.38
2017-12-09T10:37:53.619Z,71.47
2017-12-09T10:38:53.632Z,71.19
2017-12-09T10:39:53.646Z,71.28
2017-12-09T10:40:53.650Z,71.19
2017-12-09T10:41:53.665Z,71.19
2017-12-09T10:42:53.671Z,71
2017-12-09T10:43:53.681Z,71.19
2017-12-09T10:44:53.693Z,72.14
2017-12-09T10:45:53.700Z,71.95
2017-12-09T10:46:53.713Z,72.23
2017-12-09T10:47:53.724Z,72.61
2017-12-09T10:48:53.464Z,72.71
2017-12-09T10:49:53.741Z,72.71
2017-12-09T10:50:53.801Z,72.14
2017-12-09T10:51:53.762Z,72.04
2017-12-09T10:52:53.781Z,72.71
2017-12-09T10:53:53.783Z,72.8
2017-12-09T10:54:53.530Z,72.04
2017-12-09T10:55:53.808Z,72.42
2017-12-09T10:56:53.558Z,71.66
2017-12-09T10:57:53.868Z,71.95
2017-12-09T10:58:53.834Z,71
2017-12-09T10:59:53.843Z,71.19
2017-12-09T11:00:53.590Z,70.81
2017-12-09T11:01:53.868Z,70.9
2017-12-09T11:02:53.611Z,71
2017-12-09T11:03:53.884Z,70.81
2017-12-09T11:04:53.897Z,71.28
2017-12-09T11:05:53.645Z,71.19
2017-12-09T11:06:53.917Z,71.47
2017-12-09T11:07:53.661Z,71.57
2017-12-09T11:08:53.937Z,71.57
2017-12-09T11:09:53.976Z,71.09
2017-12-09T11:10:53.957Z,71.38
2017-12-09T11:11:53.968Z,71.28
2017-12-09T11:12:53.722Z,70.81
2017-12-09T11:13:53.994Z,70.81
2017-12-09T11:14:54.005Z,70.24
2017-12-09T11:15:53.744Z,70.05
2017-12-09T11:16:54.018Z,70.34
2017-12-09T11:17:53.763Z,70.53
2017-12-09T11:18:54.048Z,70.24
2017-12-09T11:19:53.784Z,70.62
2017-12-09T11:20:53.796Z,70.53
2017-12-09T11:21:53.803Z,71
2017-12-09T11:22:53.817Z,70.72
2017-12-09T11:23:53.835Z,71.09
2017-12-09T11:24:54.156Z,70.81
2017-12-09T11:25:54.115Z,70.9
2017-12-09T11:26:54.120Z,70.81
2017-12-09T11:27:54.132Z,70.81
2017-12-09T11:28:53.877Z,70.9
2017-12-09T11:29:54.155Z,70.9
2017-12-09T11:30:54.163Z,70.9
2017-12-09T11:31:54.175Z,71.38
2017-12-09T11:32:54.184Z,71.09
2017-12-09T11:33:53.928Z,71
2017-12-09T11:34:54.208Z,71.38
2017-12-09T11:35:54.219Z,71.28
2017-12-09T11:36:54.232Z,71.19
2017-12-09T11:37:54.238Z,71.19
2017-12-09T11:38:54.246Z,71
2017-12-09T11:39:54.255Z,71.19
2017-12-09T11:40:54.264Z,71.38
2017-12-09T11:41:54.011Z,71.28
2017-12-09T11:42:54.289Z,71
2017-12-09T11:43:54.300Z,71.57
2017-12-09T11:44:54.043Z,72.04
2017-12-09T11:45:54.317Z,71.76
2017-12-09T11:46:54.328Z,71.85
2017-12-09T11:47:54.341Z,71.66
2017-12-09T11:48:54.351Z,71.95
2017-12-09T11:49:54.359Z,71.95
2017-12-09T11:50:54.374Z,71.76
2017-12-09T11:51:54.380Z,72.04
2017-12-09T11:52:54.391Z,71.57
2017-12-09T11:53:54.398Z,72.33
2017-12-09T11:54:54.146Z,72.04
2017-12-09T11:55:54.424Z,71.76
2017-12-09T11:56:54.164Z,71.85
2017-12-09T11:57:54.441Z,72.14
2017-12-09T11:58:54.457Z,72.33
2017-12-09T11:59:54.462Z,72.71
2017-12-09T12:00:54.474Z,72.89
2017-12-09T12:01:54.484Z,72.89
2017-12-09T12:02:54.493Z,72.71
2017-12-09T12:03:54.501Z,72.89
2017-12-09T12:04:54.515Z,72.14
2017-12-09T12:05:54.523Z,72.52
2017-12-09T12:06:54.536Z,72.42
2017-12-09T12:07:54.543Z,72.42
2017-12-09T12:08:54.552Z,72.33
2017-12-09T12:09:54.564Z,72.14
2017-12-09T12:10:54.574Z,72.71
2017-12-09T12:11:54.587Z,72.61
2017-12-09T12:12:54.593Z,72.33
2017-12-09T12:13:54.608Z,72.71
2017-12-09T12:14:54.617Z,72.52
2017-12-09T12:15:54.627Z,72.42
2017-12-09T12:16:54.368Z,72.61
2017-12-09T12:17:54.645Z,72.71
2017-12-09T12:18:54.657Z,72.71
2017-12-09T12:19:54.672Z,72.42
2017-12-09T12:20:54.413Z,72.71
2017-12-09T12:21:54.697Z,72.89
2017-12-09T12:22:54.774Z,72.8
2017-12-09T12:23:54.740Z,72.89
2017-12-09T12:24:54.744Z,72.61
2017-12-09T12:25:54.734Z,72.33
2017-12-09T12:26:54.473Z,72.52
2017-12-09T12:27:54.754Z,72.61
2017-12-09T12:28:54.760Z,72.23
2017-12-09T12:29:54.829Z,72.71
2017-12-09T12:30:54.879Z,73.12
2017-12-09T12:31:54.762Z,72.8
2017-12-09T12:32:54.801Z,72.89
2017-12-09T12:33:54.809Z,72.64
2017-12-09T12:34:54.822Z,72.61
2017-12-09T12:35:54.829Z,72.08
2017-12-09T12:36:54.844Z,72.17
2017-12-09T12:37:54.853Z,72.84
2017-12-09T12:38:54.644Z,72.55
2017-12-09T12:39:54.887Z,72.64
2017-12-09T12:40:54.882Z,72.64
2017-12-09T12:41:54.630Z,72.74
2017-12-09T12:42:54.636Z,72.55
2017-12-09T12:43:54.913Z,72.55
2017-12-09T12:44:54.923Z,72.55
2017-12-09T12:45:54.934Z,72.64
2017-12-09T12:46:54.947Z,72.36
2017-12-09T12:47:54.711Z,72.27
2017-12-09T12:48:55.012Z,71.7
2017-12-09T12:49:54.989Z,71.7
2017-12-09T12:50:55.029Z,71.98
2017-12-09T12:51:55.008Z,71.8
2017-12-09T12:52:55.006Z,71.51
2017-12-09T12:53:55.016Z,71.22
2017-12-09T12:54:54.794Z,71.32
2017-12-09T12:55:55.055Z,70.94
2017-12-09T12:56:54.786Z,71.51